sensor_id;sensor_type;location;lat;lon;timestamp;P1;durP1;ratioP1;P2;durP2;ratioP2
61739;SDS011;47645;45.288;12.038;2024-01-15T00:04:55;90.5;;;48.4;;
61739;SDS011;47645;45.288;12.038;2024-01-15T00:14:55;99.9;;;52.0;;
61739;SDS011;47645;45.288;12.038;2024-01-15T00:24:56;95.8;;;51.2;;
61739;SDS011;47645;45.288;12.038;2024-01-15T00:34:56;95.6;;;49.3;;
61739;SDS011;47645;45.288;12.038;2024-01-15T00:44:57;96.3;;;48.9;;
61739;SDS011;47645;45.288;12.038;2024-01-15T00:54:57;89.5;;;46.8;;
61739;SDS011;47645;45.288;12.038;2024-01-15T01:04:58;75.5;;;42.2;;
61739;SDS011;47645;45.288;12.038;2024-01-15T01:14:59;88.1;;;48.3;;
61739;SDS011;47645;45.288;12.038;2024-01-15T01:24:59;93.8;;;50.6;;
61739;SDS011;47645;45.288;12.038;2024-01-15T01:34:59;109.4;;;53.6;;
61739;SDS011;47645;45.288;12.038;2024-01-15T01:45:00;92.3;;;49.4;;
61739;SDS011;47645;45.288;12.038;2024-01-15T01:55:00;95.3;;;51.8;;
61739;SDS011;47645;45.288;12.038;2024-01-15T02:05:01;86.8;;;47.2;;
61739;SDS011;47645;45.288;12.038;2024-01-15T02:15:01;95.7;;;48.4;;
61739;SDS011;47645;45.288;12.038;2024-01-15T02:25:01;92.5;;;47.8;;
61739;SDS011;47645;45.288;12.038;2024-01-15T02:35:02;89.2;;;46.6;;
61739;SDS011;47645;45.288;12.038;2024-01-15T02:45:02;86.9;;;47.7;;
61739;SDS011;47645;45.288;12.038;2024-01-15T02:55:03;80.0;;;45.6;;
61739;SDS011;47645;45.288;12.038;2024-01-15T03:00:04;84.3;;;45.1;;
61739;SDS011;47645;45.288;12.038;2024-01-15T03:15:04;85.0;;;46.4;;
61739;SDS011;47645;45.288;12.038;2024-01-15T03:20:04;84.4;;;46.4;;
61739;SDS011;47645;45.288;12.038;2024-01-15T03:30:04;82.6;;;44.6;;
61739;SDS011;47645;45.288;12.038;2024-01-15T03:40:05;78.7;;;43.2;;
61739;SDS011;47645;45.288;12.038;2024-01-15T03:50:05;62.7;;;36.4;;
61739;SDS011;47645;45.288;12.038;2024-01-15T04:00:06;68.8;;;39.5;;
61739;SDS011;47645;45.288;12.038;2024-01-15T04:10:06;67.1;;;38.2;;
61739;SDS011;47645;45.288;12.038;2024-01-15T04:20:07;72.3;;;39.8;;
61739;SDS011;47645;45.288;12.038;2024-01-15T04:30:07;75.5;;;38.8;;
61739;SDS011;47645;45.288;12.038;2024-01-15T04:40:07;73.8;;;41.3;;
61739;SDS011;47645;45.288;12.038;2024-01-15T04:50:08;71.4;;;39.1;;
61739;SDS011;47645;45.288;12.038;2024-01-15T05:00:08;68.8;;;38.0;;
61739;SDS011;47645;45.288;12.038;2024-01-15T05:10:09;70.6;;;38.6;;
61739;SDS011;47645;45.288;12.038;2024-01-15T05:20:10;68.4;;;37.4;;
61739;SDS011;47645;45.288;12.038;2024-01-15T05:30:09;70.4;;;39.1;;
61739;SDS011;47645;45.288;12.038;2024-01-15T05:40:10;69.0;;;35.8;;
61739;SDS011;47645;45.288;12.038;2024-01-15T05:50:10;59.3;;;34.7;;
61739;SDS011;47645;45.288;12.038;2024-01-15T06:00:11;59.8;;;33.0;;
61739;SDS011;47645;45.288;12.038;2024-01-15T06:10:11;55.8;;;31.9;;
61739;SDS011;47645;45.288;12.038;2024-01-15T06:20:12;59.9;;;32.6;;
61739;SDS011;47645;45.288;12.038;2024-01-15T06:30:12;51.9;;;30.1;;
61739;SDS011;47645;45.288;12.038;2024-01-15T06:40:12;62.7;;;31.7;;
61739;SDS011;47645;45.288;12.038;2024-01-15T06:50:13;52.3;;;30.0;;
61739;SDS011;47645;45.288;12.038;2024-01-15T07:00:13;60.9;;;32.9;;
61739;SDS011;47645;45.288;12.038;2024-01-15T07:10:14;51.8;;;28.3;;
61739;SDS011;47645;45.288;12.038;2024-01-15T07:20:14;60.7;;;34.0;;
61739;SDS011;47645;45.288;12.038;2024-01-15T07:30:14;62.2;;;36.1;;
61739;SDS011;47645;45.288;12.038;2024-01-15T07:40:15;65.0;;;35.5;;
61739;SDS011;47645;45.288;12.038;2024-01-15T07:50:15;64.7;;;36.1;;
61739;SDS011;47645;45.288;12.038;2024-01-15T08:00:16;66.2;;;36.4;;
61739;SDS011;47645;45.288;12.038;2024-01-15T08:10:16;68.9;;;37.8;;
61739;SDS011;47645;45.288;12.038;2024-01-15T08:20:16;63.4;;;34.3;;
61739;SDS011;47645;45.288;12.038;2024-01-15T08:30:18;67.2;;;36.9;;
61739;SDS011;47645;45.288;12.038;2024-01-15T08:40:17;59.1;;;33.3;;
61739;SDS011;47645;45.288;12.038;2024-01-15T08:50:17;57.2;;;34.3;;
61739;SDS011;47645;45.288;12.038;2024-01-15T09:00:18;64.0;;;34.6;;
61739;SDS011;47645;45.288;12.038;2024-01-15T09:10:18;66.6;;;35.6;;
61739;SDS011;47645;45.288;12.038;2024-01-15T09:20:19;67.3;;;36.5;;
61739;SDS011;47645;45.288;12.038;2024-01-15T09:30:19;69.9;;;38.5;;
61739;SDS011;47645;45.288;12.038;2024-01-15T09:40:20;62.6;;;35.4;;
61739;SDS011;47645;45.288;12.038;2024-01-15T09:50:20;64.4;;;35.6;;
61739;SDS011;47645;45.288;12.038;2024-01-15T10:00:21;73.4;;;38.8;;
61739;SDS011;47645;45.288;12.038;2024-01-15T10:10:22;78.3;;;42.8;;
61739;SDS011;47645;45.288;12.038;2024-01-15T10:20:22;73.6;;;40.6;;
61739;SDS011;47645;45.288;12.038;2024-01-15T10:30:22;66.5;;;36.8;;
61739;SDS011;47645;45.288;12.038;2024-01-15T10:40:22;63.9;;;36.5;;
61739;SDS011;47645;45.288;12.038;2024-01-15T10:50:23;67.1;;;37.1;;
61739;SDS011;47645;45.288;12.038;2024-01-15T11:00:25;68.1;;;37.6;;
61739;SDS011;47645;45.288;12.038;2024-01-15T11:10:40;62.7;;;34.3;;
61739;SDS011;47645;45.288;12.038;2024-01-15T11:20:24;69.6;;;39.1;;
61739;SDS011;47645;45.288;12.038;2024-01-15T11:30:25;64.1;;;38.2;;
61739;SDS011;47645;45.288;12.038;2024-01-15T11:40:40;65.7;;;36.1;;
61739;SDS011;47645;45.288;12.038;2024-01-15T11:50:26;58.1;;;33.6;;
61739;SDS011;47645;45.288;12.038;2024-01-15T12:00:26;65.9;;;36.9;;
61739;SDS011;47645;45.288;12.038;2024-01-15T12:10:27;63.5;;;35.8;;
61739;SDS011;47645;45.288;12.038;2024-01-15T12:20:27;67.5;;;37.3;;
61739;SDS011;47645;45.288;12.038;2024-01-15T12:30:28;67.9;;;38.7;;
61739;SDS011;47645;45.288;12.038;2024-01-15T12:40:28;66.9;;;37.4;;
61739;SDS011;47645;45.288;12.038;2024-01-15T12:50:29;66.5;;;35.5;;
61739;SDS011;47645;45.288;12.038;2024-01-15T13:00:29;66.2;;;37.1;;
61739;SDS011;47645;45.288;12.038;2024-01-15T13:10:31;64.7;;;38.4;;
61739;SDS011;47645;45.288;12.038;2024-01-15T13:20:30;68.9;;;38.2;;
61739;SDS011;47645;45.288;12.038;2024-01-15T13:30:31;69.1;;;39.1;;
61739;SDS011;47645;45.288;12.038;2024-01-15T13:40:31;61.3;;;35.9;;
61739;SDS011;47645;45.288;12.038;2024-01-15T13:50:32;63.5;;;34.6;;
61739;SDS011;47645;45.288;12.038;2024-01-15T14:00:33;56.8;;;33.0;;
61739;SDS011;47645;45.288;12.038;2024-01-15T14:10:33;66.9;;;38.4;;
61739;SDS011;47645;45.288;12.038;2024-01-15T14:20:34;62.7;;;37.2;;
61739;SDS011;47645;45.288;12.038;2024-01-15T14:30:34;61.7;;;36.5;;
61739;SDS011;47645;45.288;12.038;2024-01-15T14:40:35;71.4;;;38.8;;
61739;SDS011;47645;45.288;12.038;2024-01-15T14:50:35;59.1;;;34.2;;
61739;SDS011;47645;45.288;12.038;2024-01-15T15:00:36;66.4;;;36.4;;
61739;SDS011;47645;45.288;12.038;2024-01-15T15:10:36;64.4;;;37.0;;
61739;SDS011;47645;45.288;12.038;2024-01-15T15:20:38;71.3;;;37.6;;
61739;SDS011;47645;45.288;12.038;2024-01-15T15:30:38;50.1;;;29.8;;
61739;SDS011;47645;45.288;12.038;2024-01-15T15:40:38;65.0;;;35.5;;
61739;SDS011;47645;45.288;12.038;2024-01-15T15:50:39;54.6;;;30.9;;
61739;SDS011;47645;45.288;12.038;2024-01-15T16:00:39;51.3;;;29.0;;
61739;SDS011;47645;45.288;12.038;2024-01-15T16:10:40;55.8;;;31.8;;
61739;SDS011;47645;45.288;12.038;2024-01-15T16:20:42;50.8;;;30.0;;
61739;SDS011;47645;45.288;12.038;2024-01-15T16:30:41;60.0;;;33.4;;
61739;SDS011;47645;45.288;12.038;2024-01-15T16:40:41;77.1;;;42.1;;
61739;SDS011;47645;45.288;12.038;2024-01-15T16:50:42;81.0;;;43.1;;
61739;SDS011;47645;45.288;12.038;2024-01-15T17:00:42;79.9;;;43.3;;
61739;SDS011;47645;45.288;12.038;2024-01-15T17:10:43;69.8;;;39.4;;
61739;SDS011;47645;45.288;12.038;2024-01-15T17:20:46;71.1;;;38.9;;
61739;SDS011;47645;45.288;12.038;2024-01-15T17:30:46;70.4;;;39.5;;
61739;SDS011;47645;45.288;12.038;2024-01-15T17:40:44;62.1;;;34.7;;
61739;SDS011;47645;45.288;12.038;2024-01-15T17:50:45;80.3;;;41.8;;
61739;SDS011;47645;45.288;12.038;2024-01-15T18:00:45;59.8;;;34.4;;
61739;SDS011;47645;45.288;12.038;2024-01-15T18:10:46;69.1;;;37.4;;
61739;SDS011;47645;45.288;12.038;2024-01-15T18:20:46;84.8;;;45.3;;
61739;SDS011;47645;45.288;12.038;2024-01-15T18:30:47;101.4;;;51.1;;
61739;SDS011;47645;45.288;12.038;2024-01-15T18:40:47;81.4;;;44.7;;
61739;SDS011;47645;45.288;12.038;2024-01-15T18:50:48;76.5;;;42.1;;
61739;SDS011;47645;45.288;12.038;2024-01-15T19:00:48;84.9;;;44.9;;
61739;SDS011;47645;45.288;12.038;2024-01-15T19:10:48;104.1;;;52.1;;
61739;SDS011;47645;45.288;12.038;2024-01-15T19:20:49;109.6;;;54.5;;
61739;SDS011;47645;45.288;12.038;2024-01-15T19:30:51;95.2;;;48.7;;
61739;SDS011;47645;45.288;12.038;2024-01-15T19:40:50;76.6;;;41.0;;
61739;SDS011;47645;45.288;12.038;2024-01-15T19:50:51;75.1;;;41.2;;
61739;SDS011;47645;45.288;12.038;2024-01-15T20:00:50;77.3;;;42.4;;
61739;SDS011;47645;45.288;12.038;2024-01-15T20:10:53;105.4;;;54.6;;
61739;SDS011;47645;45.288;12.038;2024-01-15T20:20:52;101.5;;;55.4;;
61739;SDS011;47645;45.288;12.038;2024-01-15T20:30:52;102.1;;;53.8;;
61739;SDS011;47645;45.288;12.038;2024-01-15T20:40:52;132.4;;;66.9;;
61739;SDS011;47645;45.288;12.038;2024-01-15T20:50:52;99.1;;;53.7;;
61739;SDS011;47645;45.288;12.038;2024-01-15T21:00:54;142.1;;;70.5;;
61739;SDS011;47645;45.288;12.038;2024-01-15T21:10:53;120.6;;;60.8;;
61739;SDS011;47645;45.288;12.038;2024-01-15T21:20:55;118.2;;;61.1;;
61739;SDS011;47645;45.288;12.038;2024-01-15T21:30:55;102.1;;;54.2;;
61739;SDS011;47645;45.288;12.038;2024-01-15T21:40:54;116.0;;;58.1;;
61739;SDS011;47645;45.288;12.038;2024-01-15T21:50:55;113.6;;;57.1;;
61739;SDS011;47645;45.288;12.038;2024-01-15T22:00:55;84.1;;;44.8;;
61739;SDS011;47645;45.288;12.038;2024-01-15T22:10:56;80.1;;;43.5;;
61739;SDS011;47645;45.288;12.038;2024-01-15T22:20:59;79.3;;;43.8;;
61739;SDS011;47645;45.288;12.038;2024-01-15T22:30:56;78.5;;;42.5;;
61739;SDS011;47645;45.288;12.038;2024-01-15T22:40:58;78.6;;;45.1;;
61739;SDS011;47645;45.288;12.038;2024-01-15T22:50:58;87.0;;;45.4;;
61739;SDS011;47645;45.288;12.038;2024-01-15T23:00:59;67.3;;;39.3;;
61739;SDS011;47645;45.288;12.038;2024-01-15T23:10:58;73.6;;;41.1;;
61739;SDS011;47645;45.288;12.038;2024-01-15T23:20:58;71.5;;;40.0;;
61739;SDS011;47645;45.288;12.038;2024-01-15T23:30:59;68.8;;;38.4;;
61739;SDS011;47645;45.288;12.038;2024-01-15T23:40:59;68.4;;;37.5;;
61739;SDS011;47645;45.288;12.038;2024-01-15T23:51:03;75.0;;;39.2;;
